sensor_id;sensor_type;location;lat;lon;timestamp;P1;durP1;ratioP1;P2;durP2;ratioP2
64684;SDS011;51109;47.414;18.954;2022-10-17T00:02:00;7.68;;;4.63;;
64684;SDS011;51109;47.414;18.954;2022-10-17T00:04:26;5.43;;;4.13;;
64684;SDS011;51109;47.414;18.954;2022-10-17T00:06:52;7.50;;;4.55;;
64684;SDS011;51109;47.414;18.954;2022-10-17T00:09:18;8.35;;;4.80;;
64684;SDS011;51109;47.414;18.954;2022-10-17T00:11:44;6.72;;;4.40;;
64684;SDS011;51109;47.414;18.954;2022-10-17T00:14:09;6.57;;;4.50;;
64684;SDS011;51109;47.414;18.954;2022-10-17T00:16:35;8.25;;;4.55;;
64684;SDS011;51109;47.414;18.954;2022-10-17T00:19:02;8.00;;;4.63;;
64684;SDS011;51109;47.414;18.954;2022-10-17T00:21:29;8.18;;;4.35;;
64684;SDS011;51109;47.414;18.954;2022-10-17T00:23:55;6.90;;;4.50;;
64684;SDS011;51109;47.414;18.954;2022-10-17T00:26:21;8.23;;;4.97;;
64684;SDS011;51109;47.414;18.954;2022-10-17T00:28:48;7.53;;;4.68;;
64684;SDS011;51109;47.414;18.954;2022-10-17T00:31:15;8.43;;;5.53;;
64684;SDS011;51109;47.414;18.954;2022-10-17T00:33:42;9.68;;;5.40;;
64684;SDS011;51109;47.414;18.954;2022-10-17T00:36:12;10.43;;;5.40;;
64684;SDS011;51109;47.414;18.954;2022-10-17T00:38:44;6.38;;;4.78;;
64684;SDS011;51109;47.414;18.954;2022-10-17T00:41:16;7.20;;;4.85;;
64684;SDS011;51109;47.414;18.954;2022-10-17T00:44:01;10.07;;;5.25;;
64684;SDS011;51109;47.414;18.954;2022-10-17T00:46:33;10.35;;;4.65;;
64684;SDS011;51109;47.414;18.954;2022-10-17T00:49:08;6.15;;;4.47;;
64684;SDS011;51109;47.414;18.954;2022-10-17T00:54:07;10.95;;;5.10;;
64684;SDS011;51109;47.414;18.954;2022-10-17T00:56:35;9.02;;;4.28;;
64684;SDS011;51109;47.414;18.954;2022-10-17T00:59:05;10.32;;;5.60;;
64684;SDS011;51109;47.414;18.954;2022-10-17T01:01:33;9.50;;;4.65;;
64684;SDS011;51109;47.414;18.954;2022-10-17T01:03:59;9.05;;;5.00;;
64684;SDS011;51109;47.414;18.954;2022-10-17T01:06:25;8.63;;;5.25;;
64684;SDS011;51109;47.414;18.954;2022-10-17T01:08:51;9.65;;;5.35;;
64684;SDS011;51109;47.414;18.954;2022-10-17T01:13:45;10.55;;;5.18;;
64684;SDS011;51109;47.414;18.954;2022-10-17T01:16:18;6.53;;;4.78;;
64684;SDS011;51109;47.414;18.954;2022-10-17T01:18:53;12.00;;;6.10;;
64684;SDS011;51109;47.414;18.954;2022-10-17T01:21:42;8.80;;;4.88;;
64684;SDS011;51109;47.414;18.954;2022-10-17T01:27:33;8.48;;;5.68;;
64684;SDS011;51109;47.414;18.954;2022-10-17T01:32:43;11.43;;;5.75;;
64684;SDS011;51109;47.414;18.954;2022-10-17T01:35:36;7.80;;;5.45;;
64684;SDS011;51109;47.414;18.954;2022-10-17T01:38:50;7.60;;;5.05;;
64684;SDS011;51109;47.414;18.954;2022-10-17T01:43:53;7.75;;;5.38;;
64684;SDS011;51109;47.414;18.954;2022-10-17T01:46:25;11.27;;;5.25;;
64684;SDS011;51109;47.414;18.954;2022-10-17T01:48:57;7.22;;;4.80;;
64684;SDS011;51109;47.414;18.954;2022-10-17T01:54:47;8.63;;;5.07;;
64684;SDS011;51109;47.414;18.954;2022-10-17T01:56:50;6.20;;;4.88;;
64684;SDS011;51109;47.414;18.954;2022-10-17T01:59:22;6.83;;;5.13;;
64684;SDS011;51109;47.414;18.954;2022-10-17T02:01:54;10.05;;;5.55;;
64684;SDS011;51109;47.414;18.954;2022-10-17T02:04:22;10.93;;;5.95;;
64684;SDS011;51109;47.414;18.954;2022-10-17T02:06:50;9.18;;;5.35;;
64684;SDS011;51109;47.414;18.954;2022-10-17T02:09:18;7.20;;;4.88;;
64684;SDS011;51109;47.414;18.954;2022-10-17T02:11:49;9.32;;;5.22;;
64684;SDS011;51109;47.414;18.954;2022-10-17T02:20:29;9.23;;;4.88;;
64684;SDS011;51109;47.414;18.954;2022-10-17T02:25:57;9.32;;;5.20;;
64684;SDS011;51109;47.414;18.954;2022-10-17T02:28:39;8.15;;;5.45;;
64684;SDS011;51109;47.414;18.954;2022-10-17T02:31:10;7.32;;;4.78;;
64684;SDS011;51109;47.414;18.954;2022-10-17T02:33:49;8.13;;;5.18;;
64684;SDS011;51109;47.414;18.954;2022-10-17T02:36:21;12.73;;;5.50;;
64684;SDS011;51109;47.414;18.954;2022-10-17T02:38:51;11.52;;;6.15;;
64684;SDS011;51109;47.414;18.954;2022-10-17T02:41:19;8.73;;;5.10;;
64684;SDS011;51109;47.414;18.954;2022-10-17T02:43:48;9.82;;;5.70;;
64684;SDS011;51109;47.414;18.954;2022-10-17T02:46:15;12.50;;;6.15;;
64684;SDS011;51109;47.414;18.954;2022-10-17T02:48:47;8.75;;;5.45;;
64684;SDS011;51109;47.414;18.954;2022-10-17T02:56:41;9.77;;;6.38;;
64684;SDS011;51109;47.414;18.954;2022-10-17T02:59:20;9.48;;;6.75;;
64684;SDS011;51109;47.414;18.954;2022-10-17T03:04:22;11.35;;;6.57;;
64684;SDS011;51109;47.414;18.954;2022-10-17T03:06:48;12.80;;;6.70;;
64684;SDS011;51109;47.414;18.954;2022-10-17T03:09:14;11.88;;;7.32;;
64684;SDS011;51109;47.414;18.954;2022-10-17T03:11:40;13.02;;;7.13;;
64684;SDS011;51109;47.414;18.954;2022-10-17T03:14:06;10.02;;;6.15;;
64684;SDS011;51109;47.414;18.954;2022-10-17T03:16:32;10.27;;;5.60;;
64684;SDS011;51109;47.414;18.954;2022-10-17T03:18:58;12.18;;;6.50;;
64684;SDS011;51109;47.414;18.954;2022-10-17T03:21:24;11.23;;;6.75;;
64684;SDS011;51109;47.414;18.954;2022-10-17T03:23:50;14.38;;;7.05;;
64684;SDS011;51109;47.414;18.954;2022-10-17T03:26:16;11.63;;;6.95;;
64684;SDS011;51109;47.414;18.954;2022-10-17T03:28:41;13.98;;;6.90;;
64684;SDS011;51109;47.414;18.954;2022-10-17T03:31:14;12.77;;;6.07;;
64684;SDS011;51109;47.414;18.954;2022-10-17T03:33:41;16.52;;;7.90;;
64684;SDS011;51109;47.414;18.954;2022-10-17T03:36:15;9.15;;;6.38;;
64684;SDS011;51109;47.414;18.954;2022-10-17T03:38:42;10.82;;;6.38;;
64684;SDS011;51109;47.414;18.954;2022-10-17T03:41:09;10.98;;;6.50;;
64684;SDS011;51109;47.414;18.954;2022-10-17T03:43:35;13.23;;;6.68;;
64684;SDS011;51109;47.414;18.954;2022-10-17T03:46:01;11.30;;;6.68;;
64684;SDS011;51109;47.414;18.954;2022-10-17T03:48:28;14.25;;;6.50;;
64684;SDS011;51109;47.414;18.954;2022-10-17T03:51:02;12.73;;;7.10;;
64684;SDS011;51109;47.414;18.954;2022-10-17T03:53:30;9.65;;;6.25;;
64684;SDS011;51109;47.414;18.954;2022-10-17T03:55:56;12.70;;;7.60;;
64684;SDS011;51109;47.414;18.954;2022-10-17T03:58:33;11.43;;;7.28;;
64684;SDS011;51109;47.414;18.954;2022-10-17T04:01:02;10.55;;;6.57;;
64684;SDS011;51109;47.414;18.954;2022-10-17T04:03:29;13.18;;;7.38;;
64684;SDS011;51109;47.414;18.954;2022-10-17T04:05:57;10.55;;;6.93;;
64684;SDS011;51109;47.414;18.954;2022-10-17T04:08:24;9.70;;;6.45;;
64684;SDS011;51109;47.414;18.954;2022-10-17T04:10:51;10.43;;;6.28;;
64684;SDS011;51109;47.414;18.954;2022-10-17T04:13:16;12.60;;;7.20;;
64684;SDS011;51109;47.414;18.954;2022-10-17T04:15:52;10.93;;;6.85;;
64684;SDS011;51109;47.414;18.954;2022-10-17T04:18:29;22.63;;;12.18;;
64684;SDS011;51109;47.414;18.954;2022-10-17T04:20:56;11.65;;;6.75;;
64684;SDS011;51109;47.414;18.954;2022-10-17T04:23:22;12.77;;;7.05;;
64684;SDS011;51109;47.414;18.954;2022-10-17T04:25:48;14.90;;;6.00;;
64684;SDS011;51109;47.414;18.954;2022-10-17T04:28:14;10.57;;;6.05;;
64684;SDS011;51109;47.414;18.954;2022-10-17T04:30:40;11.32;;;6.38;;
64684;SDS011;51109;47.414;18.954;2022-10-17T04:33:06;13.18;;;6.97;;
64684;SDS011;51109;47.414;18.954;2022-10-17T04:35:39;10.33;;;6.03;;
64684;SDS011;51109;47.414;18.954;2022-10-17T04:38:04;10.57;;;6.68;;
64684;SDS011;51109;47.414;18.954;2022-10-17T04:40:30;16.05;;;6.32;;
64684;SDS011;51109;47.414;18.954;2022-10-17T04:42:56;10.98;;;6.25;;
64684;SDS011;51109;47.414;18.954;2022-10-17T04:45:22;13.52;;;7.65;;
64684;SDS011;51109;47.414;18.954;2022-10-17T04:47:48;10.30;;;6.43;;
64684;SDS011;51109;47.414;18.954;2022-10-17T04:50:13;13.07;;;6.60;;
64684;SDS011;51109;47.414;18.954;2022-10-17T04:52:39;13.43;;;7.30;;
64684;SDS011;51109;47.414;18.954;2022-10-17T04:55:05;11.98;;;6.88;;
64684;SDS011;51109;47.414;18.954;2022-10-17T04:57:34;15.60;;;7.03;;
64684;SDS011;51109;47.414;18.954;2022-10-17T05:00:00;16.30;;;7.20;;
64684;SDS011;51109;47.414;18.954;2022-10-17T05:02:27;12.38;;;7.35;;
64684;SDS011;51109;47.414;18.954;2022-10-17T05:04:52;9.63;;;5.97;;
64684;SDS011;51109;47.414;18.954;2022-10-17T05:07:18;16.75;;;6.60;;
64684;SDS011;51109;47.414;18.954;2022-10-17T05:09:44;17.00;;;6.93;;
64684;SDS011;51109;47.414;18.954;2022-10-17T05:12:10;12.43;;;6.50;;
64684;SDS011;51109;47.414;18.954;2022-10-17T05:14:36;11.13;;;5.97;;
64684;SDS011;51109;47.414;18.954;2022-10-17T05:17:02;15.13;;;6.68;;
64684;SDS011;51109;47.414;18.954;2022-10-17T05:19:28;9.30;;;6.32;;
64684;SDS011;51109;47.414;18.954;2022-10-17T05:21:54;14.82;;;7.20;;
64684;SDS011;51109;47.414;18.954;2022-10-17T05:24:20;11.90;;;6.28;;
64684;SDS011;51109;47.414;18.954;2022-10-17T05:26:45;16.23;;;6.90;;
64684;SDS011;51109;47.414;18.954;2022-10-17T05:29:14;15.63;;;6.65;;
64684;SDS011;51109;47.414;18.954;2022-10-17T05:31:39;11.10;;;6.03;;
64684;SDS011;51109;47.414;18.954;2022-10-17T05:34:06;9.70;;;6.18;;
64684;SDS011;51109;47.414;18.954;2022-10-17T05:36:32;14.73;;;6.57;;
64684;SDS011;51109;47.414;18.954;2022-10-17T05:38:57;13.30;;;6.95;;
64684;SDS011;51109;47.414;18.954;2022-10-17T05:41:23;12.32;;;7.05;;
64684;SDS011;51109;47.414;18.954;2022-10-17T05:43:49;12.02;;;7.57;;
64684;SDS011;51109;47.414;18.954;2022-10-17T05:46:15;13.65;;;7.35;;
64684;SDS011;51109;47.414;18.954;2022-10-17T05:48:41;12.48;;;7.07;;
64684;SDS011;51109;47.414;18.954;2022-10-17T05:51:07;13.13;;;6.78;;
64684;SDS011;51109;47.414;18.954;2022-10-17T05:53:35;13.60;;;6.65;;
64684;SDS011;51109;47.414;18.954;2022-10-17T05:56:04;15.25;;;6.88;;
64684;SDS011;51109;47.414;18.954;2022-10-17T05:58:32;12.68;;;6.90;;
64684;SDS011;51109;47.414;18.954;2022-10-17T06:00:59;11.48;;;7.15;;
64684;SDS011;51109;47.414;18.954;2022-10-17T06:03:28;11.68;;;6.70;;
64684;SDS011;51109;47.414;18.954;2022-10-17T06:05:54;12.75;;;7.00;;
64684;SDS011;51109;47.414;18.954;2022-10-17T06:08:21;13.82;;;6.53;;
64684;SDS011;51109;47.414;18.954;2022-10-17T06:10:47;11.57;;;7.13;;
64684;SDS011;51109;47.414;18.954;2022-10-17T06:13:16;13.13;;;6.80;;
64684;SDS011;51109;47.414;18.954;2022-10-17T06:15:43;10.82;;;6.10;;
64684;SDS011;51109;47.414;18.954;2022-10-17T06:18:09;12.77;;;6.63;;
64684;SDS011;51109;47.414;18.954;2022-10-17T06:20:35;10.40;;;6.75;;
64684;SDS011;51109;47.414;18.954;2022-10-17T06:23:01;13.13;;;7.22;;
64684;SDS011;51109;47.414;18.954;2022-10-17T06:25:29;10.98;;;6.68;;
64684;SDS011;51109;47.414;18.954;2022-10-17T06:27:55;15.43;;;6.25;;
64684;SDS011;51109;47.414;18.954;2022-10-17T06:30:21;9.85;;;6.18;;
64684;SDS011;51109;47.414;18.954;2022-10-17T06:32:48;11.95;;;6.53;;
64684;SDS011;51109;47.414;18.954;2022-10-17T06:35:13;8.93;;;6.10;;
64684;SDS011;51109;47.414;18.954;2022-10-17T06:37:39;12.18;;;6.28;;
64684;SDS011;51109;47.414;18.954;2022-10-17T06:40:05;9.40;;;6.07;;
64684;SDS011;51109;47.414;18.954;2022-10-17T06:42:33;10.52;;;6.25;;
64684;SDS011;51109;47.414;18.954;2022-10-17T06:44:59;10.95;;;6.95;;
64684;SDS011;51109;47.414;18.954;2022-10-17T06:47:24;9.93;;;6.25;;
64684;SDS011;51109;47.414;18.954;2022-10-17T06:49:50;11.57;;;6.70;;
64684;SDS011;51109;47.414;18.954;2022-10-17T06:52:16;11.80;;;6.30;;
64684;SDS011;51109;47.414;18.954;2022-10-17T06:54:42;9.48;;;5.88;;
64684;SDS011;51109;47.414;18.954;2022-10-17T06:57:09;10.98;;;6.13;;
64684;SDS011;51109;47.414;18.954;2022-10-17T06:59:35;11.63;;;6.07;;
64684;SDS011;51109;47.414;18.954;2022-10-17T07:02:01;10.13;;;6.55;;
64684;SDS011;51109;47.414;18.954;2022-10-17T07:04:27;9.98;;;6.03;;
64684;SDS011;51109;47.414;18.954;2022-10-17T07:06:53;9.50;;;6.40;;
64684;SDS011;51109;47.414;18.954;2022-10-17T07:09:19;10.90;;;6.00;;
64684;SDS011;51109;47.414;18.954;2022-10-17T07:11:45;9.35;;;5.97;;
64684;SDS011;51109;47.414;18.954;2022-10-17T07:14:15;11.25;;;6.00;;
64684;SDS011;51109;47.414;18.954;2022-10-17T07:16:41;8.77;;;5.70;;
64684;SDS011;51109;47.414;18.954;2022-10-17T07:19:07;10.68;;;5.90;;
64684;SDS011;51109;47.414;18.954;2022-10-17T07:21:32;10.45;;;5.95;;
64684;SDS011;51109;47.414;18.954;2022-10-17T07:23:58;11.63;;;6.13;;
64684;SDS011;51109;47.414;18.954;2022-10-17T07:26:24;9.10;;;5.93;;
64684;SDS011;51109;47.414;18.954;2022-10-17T07:28:51;9.18;;;6.38;;
64684;SDS011;51109;47.414;18.954;2022-10-17T07:31:18;7.55;;;5.63;;
64684;SDS011;51109;47.414;18.954;2022-10-17T07:33:46;11.38;;;6.32;;
64684;SDS011;51109;47.414;18.954;2022-10-17T07:36:13;8.93;;;5.68;;
64684;SDS011;51109;47.414;18.954;2022-10-17T07:38:40;11.45;;;6.25;;
64684;SDS011;51109;47.414;18.954;2022-10-17T07:41:07;10.35;;;6.00;;
64684;SDS011;51109;47.414;18.954;2022-10-17T07:43:35;11.98;;;6.95;;
64684;SDS011;51109;47.414;18.954;2022-10-17T07:46:01;10.90;;;7.00;;
64684;SDS011;51109;47.414;18.954;2022-10-17T07:48:28;12.60;;;6.50;;
64684;SDS011;51109;47.414;18.954;2022-10-17T07:50:54;15.70;;;6.70;;
64684;SDS011;51109;47.414;18.954;2022-10-17T07:53:20;9.48;;;6.00;;
64684;SDS011;51109;47.414;18.954;2022-10-17T07:55:46;9.60;;;6.40;;
64684;SDS011;51109;47.414;18.954;2022-10-17T07:58:13;10.07;;;6.15;;
64684;SDS011;51109;47.414;18.954;2022-10-17T08:00:40;9.23;;;6.22;;
64684;SDS011;51109;47.414;18.954;2022-10-17T08:03:06;12.32;;;6.72;;
64684;SDS011;51109;47.414;18.954;2022-10-17T08:05:32;10.48;;;6.32;;
64684;SDS011;51109;47.414;18.954;2022-10-17T08:07:58;7.65;;;6.05;;
64684;SDS011;51109;47.414;18.954;2022-10-17T08:10:25;10.18;;;6.28;;
64684;SDS011;51109;47.414;18.954;2022-10-17T08:12:53;9.60;;;6.50;;
64684;SDS011;51109;47.414;18.954;2022-10-17T08:15:22;11.77;;;6.65;;
64684;SDS011;51109;47.414;18.954;2022-10-17T08:17:50;11.88;;;6.70;;
64684;SDS011;51109;47.414;18.954;2022-10-17T08:20:16;11.23;;;6.82;;
64684;SDS011;51109;47.414;18.954;2022-10-17T08:22:42;8.75;;;5.65;;
64684;SDS011;51109;47.414;18.954;2022-10-17T08:25:15;12.02;;;7.18;;
64684;SDS011;51109;47.414;18.954;2022-10-17T08:27:41;15.63;;;7.28;;
64684;SDS011;51109;47.414;18.954;2022-10-17T08:30:07;11.13;;;6.70;;
64684;SDS011;51109;47.414;18.954;2022-10-17T08:32:33;9.10;;;5.60;;
64684;SDS011;51109;47.414;18.954;2022-10-17T08:34:59;11.10;;;6.47;;
64684;SDS011;51109;47.414;18.954;2022-10-17T08:37:25;9.18;;;6.25;;
64684;SDS011;51109;47.414;18.954;2022-10-17T08:39:51;10.20;;;6.13;;
64684;SDS011;51109;47.414;18.954;2022-10-17T08:42:33;9.68;;;6.53;;
64684;SDS011;51109;47.414;18.954;2022-10-17T08:47:52;10.52;;;6.53;;
64684;SDS011;51109;47.414;18.954;2022-10-17T08:55:55;8.38;;;5.15;;
64684;SDS011;51109;47.414;18.954;2022-10-17T08:58:28;12.43;;;6.03;;
64684;SDS011;51109;47.414;18.954;2022-10-17T09:03:48;9.43;;;5.20;;
64684;SDS011;51109;47.414;18.954;2022-10-17T09:06:31;10.15;;;5.65;;
64684;SDS011;51109;47.414;18.954;2022-10-17T09:18:10;11.68;;;5.20;;
64684;SDS011;51109;47.414;18.954;2022-10-17T09:20:43;7.43;;;5.28;;
64684;SDS011;51109;47.414;18.954;2022-10-17T09:23:15;9.20;;;5.07;;
64684;SDS011;51109;47.414;18.954;2022-10-17T09:26:11;8.40;;;5.32;;
64684;SDS011;51109;47.414;18.954;2022-10-17T09:28:38;9.40;;;6.00;;
64684;SDS011;51109;47.414;18.954;2022-10-17T09:31:08;7.78;;;5.20;;
64684;SDS011;51109;47.414;18.954;2022-10-17T09:33:51;9.63;;;5.68;;
64684;SDS011;51109;47.414;18.954;2022-10-17T09:36:27;11.40;;;6.18;;
64684;SDS011;51109;47.414;18.954;2022-10-17T09:39:13;6.70;;;4.60;;
64684;SDS011;51109;47.414;18.954;2022-10-17T09:41:47;7.07;;;4.65;;
64684;SDS011;51109;47.414;18.954;2022-10-17T09:46:50;8.40;;;4.90;;
64684;SDS011;51109;47.414;18.954;2022-10-17T09:49:18;9.52;;;5.07;;
64684;SDS011;51109;47.414;18.954;2022-10-17T09:51:56;7.40;;;5.22;;
64684;SDS011;51109;47.414;18.954;2022-10-17T09:54:23;9.05;;;5.07;;
64684;SDS011;51109;47.414;18.954;2022-10-17T09:57:00;5.95;;;4.53;;
64684;SDS011;51109;47.414;18.954;2022-10-17T10:02:06;7.53;;;5.38;;
64684;SDS011;51109;47.414;18.954;2022-10-17T10:07:35;7.70;;;4.75;;
64684;SDS011;51109;47.414;18.954;2022-10-17T10:10:03;6.00;;;4.15;;
64684;SDS011;51109;47.414;18.954;2022-10-17T10:13:00;5.57;;;4.30;;
64684;SDS011;51109;47.414;18.954;2022-10-17T10:15:39;8.25;;;4.60;;
64684;SDS011;51109;47.414;18.954;2022-10-17T10:18:28;5.72;;;4.28;;
64684;SDS011;51109;47.414;18.954;2022-10-17T10:21:05;13.43;;;4.45;;
64684;SDS011;51109;47.414;18.954;2022-10-17T10:23:31;6.45;;;4.78;;
64684;SDS011;51109;47.414;18.954;2022-10-17T10:25:58;5.78;;;4.22;;
64684;SDS011;51109;47.414;18.954;2022-10-17T10:28:32;7.13;;;3.75;;
64684;SDS011;51109;47.414;18.954;2022-10-17T10:31:07;9.65;;;4.35;;
64684;SDS011;51109;47.414;18.954;2022-10-17T10:33:34;5.32;;;4.00;;
64684;SDS011;51109;47.414;18.954;2022-10-17T10:36:05;7.32;;;4.05;;
64684;SDS011;51109;47.414;18.954;2022-10-17T10:38:32;8.02;;;4.13;;
64684;SDS011;51109;47.414;18.954;2022-10-17T10:41:03;6.63;;;3.90;;
64684;SDS011;51109;47.414;18.954;2022-10-17T10:43:42;6.10;;;3.73;;
64684;SDS011;51109;47.414;18.954;2022-10-17T10:48:57;6.18;;;3.83;;
64684;SDS011;51109;47.414;18.954;2022-10-17T10:51:27;8.73;;;4.60;;
64684;SDS011;51109;47.414;18.954;2022-10-17T10:54:10;10.25;;;4.25;;
64684;SDS011;51109;47.414;18.954;2022-10-17T10:57:00;9.25;;;3.90;;
64684;SDS011;51109;47.414;18.954;2022-10-17T11:02:29;7.38;;;3.45;;
64684;SDS011;51109;47.414;18.954;2022-10-17T11:05:22;4.88;;;3.28;;
64684;SDS011;51109;47.414;18.954;2022-10-17T11:08:03;3.65;;;2.97;;
64684;SDS011;51109;47.414;18.954;2022-10-17T11:14:31;5.30;;;3.25;;
64684;SDS011;51109;47.414;18.954;2022-10-17T11:16:49;5.18;;;3.15;;
64684;SDS011;51109;47.414;18.954;2022-10-17T11:19:43;4.50;;;3.58;;
64684;SDS011;51109;47.414;18.954;2022-10-17T11:22:38;5.20;;;3.17;;
64684;SDS011;51109;47.414;18.954;2022-10-17T11:27:55;4.90;;;3.28;;
64684;SDS011;51109;47.414;18.954;2022-10-17T11:30:22;3.80;;;3.20;;
64684;SDS011;51109;47.414;18.954;2022-10-17T11:32:59;3.42;;;2.90;;
64684;SDS011;51109;47.414;18.954;2022-10-17T11:35:32;5.25;;;3.33;;
64684;SDS011;51109;47.414;18.954;2022-10-17T11:40:44;4.05;;;2.88;;
64684;SDS011;51109;47.414;18.954;2022-10-17T11:46:35;3.42;;;3.00;;
64684;SDS011;51109;47.414;18.954;2022-10-17T11:51:20;8.30;;;3.03;;
64684;SDS011;51109;47.414;18.954;2022-10-17T11:53:48;7.20;;;3.45;;
64684;SDS011;51109;47.414;18.954;2022-10-17T11:56:33;5.53;;;3.20;;
64684;SDS011;51109;47.414;18.954;2022-10-17T12:02:13;4.60;;;3.05;;
64684;SDS011;51109;47.414;18.954;2022-10-17T12:10:41;7.00;;;3.20;;
64684;SDS011;51109;47.414;18.954;2022-10-17T12:15:56;4.10;;;2.90;;
64684;SDS011;51109;47.414;18.954;2022-10-17T12:18:43;3.15;;;2.85;;
64684;SDS011;51109;47.414;18.954;2022-10-17T12:21:09;5.45;;;3.22;;
64684;SDS011;51109;47.414;18.954;2022-10-17T12:23:35;4.72;;;2.55;;
64684;SDS011;51109;47.414;18.954;2022-10-17T12:26:07;5.53;;;2.85;;
64684;SDS011;51109;47.414;18.954;2022-10-17T12:44:50;4.60;;;2.72;;
64684;SDS011;51109;47.414;18.954;2022-10-17T12:47:26;3.42;;;2.95;;
64684;SDS011;51109;47.414;18.954;2022-10-17T12:50:00;3.50;;;2.92;;
64684;SDS011;51109;47.414;18.954;2022-10-17T13:03:09;5.97;;;2.83;;
64684;SDS011;51109;47.414;18.954;2022-10-17T13:05:44;4.22;;;2.90;;
64684;SDS011;51109;47.414;18.954;2022-10-17T13:08:15;3.03;;;2.45;;
64684;SDS011;51109;47.414;18.954;2022-10-17T13:10:56;7.18;;;2.58;;
64684;SDS011;51109;47.414;18.954;2022-10-17T13:15:59;4.22;;;2.90;;
64684;SDS011;51109;47.414;18.954;2022-10-17T13:18:26;4.65;;;2.75;;
64684;SDS011;51109;47.414;18.954;2022-10-17T13:21:04;3.35;;;2.78;;
64684;SDS011;51109;47.414;18.954;2022-10-17T13:23:38;3.33;;;2.40;;
64684;SDS011;51109;47.414;18.954;2022-10-17T13:26:05;6.22;;;2.13;;
64684;SDS011;51109;47.414;18.954;2022-10-17T13:28:38;8.85;;;2.80;;
64684;SDS011;51109;47.414;18.954;2022-10-17T13:31:04;3.95;;;2.53;;
64684;SDS011;51109;47.414;18.954;2022-10-17T13:33:32;3.95;;;2.70;;
64684;SDS011;51109;47.414;18.954;2022-10-17T13:36:02;4.93;;;2.63;;
64684;SDS011;51109;47.414;18.954;2022-10-17T13:38:32;3.28;;;2.40;;
64684;SDS011;51109;47.414;18.954;2022-10-17T13:40:59;6.07;;;2.08;;
64684;SDS011;51109;47.414;18.954;2022-10-17T13:43:27;4.35;;;2.40;;
64684;SDS011;51109;47.414;18.954;2022-10-17T13:45:56;3.55;;;2.40;;
64684;SDS011;51109;47.414;18.954;2022-10-17T13:48:31;4.00;;;2.80;;
64684;SDS011;51109;47.414;18.954;2022-10-17T13:50:59;3.65;;;2.65;;
64684;SDS011;51109;47.414;18.954;2022-10-17T13:53:32;3.97;;;2.40;;
64684;SDS011;51109;47.414;18.954;2022-10-17T13:56:04;3.67;;;2.45;;
64684;SDS011;51109;47.414;18.954;2022-10-17T13:58:41;2.78;;;2.45;;
64684;SDS011;51109;47.414;18.954;2022-10-17T14:01:08;2.60;;;2.35;;
64684;SDS011;51109;47.414;18.954;2022-10-17T14:03:37;3.80;;;2.88;;
64684;SDS011;51109;47.414;18.954;2022-10-17T14:06:06;4.40;;;3.05;;
64684;SDS011;51109;47.414;18.954;2022-10-17T14:11:34;4.60;;;2.45;;
64684;SDS011;51109;47.414;18.954;2022-10-17T14:14:03;5.47;;;2.75;;
64684;SDS011;51109;47.414;18.954;2022-10-17T14:16:36;8.18;;;2.75;;
64684;SDS011;51109;47.414;18.954;2022-10-17T14:19:05;4.13;;;2.83;;
64684;SDS011;51109;47.414;18.954;2022-10-17T14:22:23;4.95;;;2.92;;
64684;SDS011;51109;47.414;18.954;2022-10-17T14:24:49;2.85;;;2.60;;
64684;SDS011;51109;47.414;18.954;2022-10-17T14:29:58;5.30;;;2.70;;
64684;SDS011;51109;47.414;18.954;2022-10-17T14:32:30;4.50;;;2.70;;
64684;SDS011;51109;47.414;18.954;2022-10-17T14:34:58;4.20;;;2.83;;
64684;SDS011;51109;47.414;18.954;2022-10-17T14:38:01;4.38;;;3.28;;
64684;SDS011;51109;47.414;18.954;2022-10-17T14:40:23;4.85;;;3.22;;
64684;SDS011;51109;47.414;18.954;2022-10-17T14:42:58;2.97;;;2.67;;
64684;SDS011;51109;47.414;18.954;2022-10-17T14:45:28;6.10;;;2.75;;
64684;SDS011;51109;47.414;18.954;2022-10-17T14:47:56;5.10;;;3.30;;
64684;SDS011;51109;47.414;18.954;2022-10-17T14:50:28;4.32;;;2.90;;
64684;SDS011;51109;47.414;18.954;2022-10-17T14:55:56;7.15;;;2.80;;
64684;SDS011;51109;47.414;18.954;2022-10-17T14:58:27;3.85;;;2.80;;
64684;SDS011;51109;47.414;18.954;2022-10-17T15:00:55;5.28;;;2.70;;
64684;SDS011;51109;47.414;18.954;2022-10-17T15:03:22;5.75;;;3.17;;
64684;SDS011;51109;47.414;18.954;2022-10-17T15:05:48;7.07;;;2.80;;
64684;SDS011;51109;47.414;18.954;2022-10-17T15:08:17;4.38;;;2.60;;
64684;SDS011;51109;47.414;18.954;2022-10-17T15:10:45;5.65;;;2.85;;
64684;SDS011;51109;47.414;18.954;2022-10-17T15:13:11;3.58;;;2.85;;
64684;SDS011;51109;47.414;18.954;2022-10-17T15:15:38;7.00;;;4.40;;
64684;SDS011;51109;47.414;18.954;2022-10-17T15:18:05;9.93;;;4.70;;
64684;SDS011;51109;47.414;18.954;2022-10-17T15:20:32;9.07;;;3.70;;
64684;SDS011;51109;47.414;18.954;2022-10-17T15:22:59;5.78;;;3.47;;
64684;SDS011;51109;47.414;18.954;2022-10-17T15:25:27;8.07;;;3.63;;
64684;SDS011;51109;47.414;18.954;2022-10-17T15:27:54;5.97;;;3.65;;
64684;SDS011;51109;47.414;18.954;2022-10-17T15:30:27;6.28;;;3.15;;
64684;SDS011;51109;47.414;18.954;2022-10-17T15:32:56;6.30;;;3.17;;
64684;SDS011;51109;47.414;18.954;2022-10-17T15:35:23;6.28;;;3.55;;
64684;SDS011;51109;47.414;18.954;2022-10-17T15:37:49;4.55;;;3.30;;
64684;SDS011;51109;47.414;18.954;2022-10-17T15:40:17;7.72;;;3.40;;
64684;SDS011;51109;47.414;18.954;2022-10-17T15:42:46;3.83;;;3.28;;
64684;SDS011;51109;47.414;18.954;2022-10-17T15:45:13;4.50;;;3.20;;
64684;SDS011;51109;47.414;18.954;2022-10-17T15:47:41;5.38;;;3.58;;
64684;SDS011;51109;47.414;18.954;2022-10-17T15:50:13;8.65;;;4.07;;
64684;SDS011;51109;47.414;18.954;2022-10-17T15:52:40;7.07;;;4.22;;
64684;SDS011;51109;47.414;18.954;2022-10-17T15:55:07;5.18;;;3.47;;
64684;SDS011;51109;47.414;18.954;2022-10-17T15:57:38;6.13;;;4.13;;
64684;SDS011;51109;47.414;18.954;2022-10-17T16:00:07;5.45;;;3.35;;
64684;SDS011;51109;47.414;18.954;2022-10-17T16:02:44;9.45;;;3.75;;
64684;SDS011;51109;47.414;18.954;2022-10-17T16:05:15;8.65;;;3.85;;
64684;SDS011;51109;47.414;18.954;2022-10-17T16:07:49;5.53;;;4.13;;
64684;SDS011;51109;47.414;18.954;2022-10-17T16:10:17;10.18;;;4.22;;
64684;SDS011;51109;47.414;18.954;2022-10-17T16:12:44;12.52;;;4.70;;
64684;SDS011;51109;47.414;18.954;2022-10-17T16:15:14;9.60;;;4.45;;
64684;SDS011;51109;47.414;18.954;2022-10-17T16:17:42;8.48;;;4.35;;
64684;SDS011;51109;47.414;18.954;2022-10-17T16:20:12;8.32;;;4.22;;
64684;SDS011;51109;47.414;18.954;2022-10-17T16:22:39;6.20;;;4.10;;
64684;SDS011;51109;47.414;18.954;2022-10-17T16:25:09;6.30;;;3.97;;
64684;SDS011;51109;47.414;18.954;2022-10-17T16:27:47;6.38;;;4.03;;
64684;SDS011;51109;47.414;18.954;2022-10-17T16:30:14;7.15;;;4.40;;
64684;SDS011;51109;47.414;18.954;2022-10-17T16:32:41;6.53;;;3.67;;
64684;SDS011;51109;47.414;18.954;2022-10-17T16:35:07;8.00;;;4.47;;
64684;SDS011;51109;47.414;18.954;2022-10-17T16:37:35;9.38;;;4.50;;
64684;SDS011;51109;47.414;18.954;2022-10-17T16:40:01;7.55;;;4.50;;
64684;SDS011;51109;47.414;18.954;2022-10-17T16:42:28;6.25;;;4.38;;
64684;SDS011;51109;47.414;18.954;2022-10-17T16:44:54;7.85;;;4.25;;
64684;SDS011;51109;47.414;18.954;2022-10-17T16:47:20;7.43;;;4.30;;
64684;SDS011;51109;47.414;18.954;2022-10-17T16:49:46;9.75;;;5.38;;
64684;SDS011;51109;47.414;18.954;2022-10-17T16:52:13;9.00;;;5.63;;
64684;SDS011;51109;47.414;18.954;2022-10-17T16:54:39;12.60;;;6.75;;
64684;SDS011;51109;47.414;18.954;2022-10-17T16:57:05;13.02;;;6.25;;